sensor_id;sensor_type;location;lat;lon;timestamp;temperature;humidity
5130;DHT22;2583;50.946;6.954;2022-12-28T00:01:31;7.30;99.90
5130;DHT22;2583;50.946;6.954;2022-12-28T00:04:00;7.40;99.80
5130;DHT22;2583;50.946;6.954;2022-12-28T00:06:27;7.40;99.90
5130;DHT22;2583;50.946;6.954;2022-12-28T00:08:55;7.40;99.90
5130;DHT22;2583;50.946;6.954;2022-12-28T00:11:24;7.40;99.80
5130;DHT22;2583;50.946;6.954;2022-12-28T00:13:59;7.50;99.00
5130;DHT22;2583;50.946;6.954;2022-12-28T00:16:29;7.50;99.40
5130;DHT22;2583;50.946;6.954;2022-12-28T00:18:58;7.60;98.80
5130;DHT22;2583;50.946;6.954;2022-12-28T00:21:25;7.60;98.90
5130;DHT22;2583;50.946;6.954;2022-12-28T00:23:54;7.70;98.20
5130;DHT22;2583;50.946;6.954;2022-12-28T00:26:30;7.70;97.70
5130;DHT22;2583;50.946;6.954;2022-12-28T00:28:58;7.80;97.50
5130;DHT22;2583;50.946;6.954;2022-12-28T00:31:32;7.80;97.60
5130;DHT22;2583;50.946;6.954;2022-12-28T00:34:00;7.80;97.70
5130;DHT22;2583;50.946;6.954;2022-12-28T00:36:27;7.90;97.60
5130;DHT22;2583;50.946;6.954;2022-12-28T00:39:14;7.90;98.30
5130;DHT22;2583;50.946;6.954;2022-12-28T00:41:40;7.90;99.20
5130;DHT22;2583;50.946;6.954;2022-12-28T00:44:08;7.90;99.40
5130;DHT22;2583;50.946;6.954;2022-12-28T00:46:34;7.90;99.30
5130;DHT22;2583;50.946;6.954;2022-12-28T00:49:01;7.90;99.50
5130;DHT22;2583;50.946;6.954;2022-12-28T00:51:28;8.00;99.60
5130;DHT22;2583;50.946;6.954;2022-12-28T00:53:55;8.00;99.50
5130;DHT22;2583;50.946;6.954;2022-12-28T00:56:22;8.00;99.80
5130;DHT22;2583;50.946;6.954;2022-12-28T00:58:53;8.10;99.80
5130;DHT22;2583;50.946;6.954;2022-12-28T01:01:22;8.10;99.80
5130;DHT22;2583;50.946;6.954;2022-12-28T01:03:49;8.10;99.60
5130;DHT22;2583;50.946;6.954;2022-12-28T01:06:18;8.10;99.20
5130;DHT22;2583;50.946;6.954;2022-12-28T01:08:46;8.10;99.30
5130;DHT22;2583;50.946;6.954;2022-12-28T01:13:45;8.10;99.50
5130;DHT22;2583;50.946;6.954;2022-12-28T01:16:14;8.10;99.90
5130;DHT22;2583;50.946;6.954;2022-12-28T01:18:42;8.10;99.90
5130;DHT22;2583;50.946;6.954;2022-12-28T01:21:15;8.20;99.90
5130;DHT22;2583;50.946;6.954;2022-12-28T01:23:43;8.20;99.90
5130;DHT22;2583;50.946;6.954;2022-12-28T01:26:10;8.20;99.90
5130;DHT22;2583;50.946;6.954;2022-12-28T01:28:37;8.10;99.90
5130;DHT22;2583;50.946;6.954;2022-12-28T01:33:35;8.20;99.90
5130;DHT22;2583;50.946;6.954;2022-12-28T01:36:12;8.20;99.90
5130;DHT22;2583;50.946;6.954;2022-12-28T01:38:40;8.30;99.90
5130;DHT22;2583;50.946;6.954;2022-12-28T01:41:09;8.20;99.90
5130;DHT22;2583;50.946;6.954;2022-12-28T01:43:40;8.40;99.90
5130;DHT22;2583;50.946;6.954;2022-12-28T01:46:09;8.30;99.90
5130;DHT22;2583;50.946;6.954;2022-12-28T01:48:49;8.30;99.90
5130;DHT22;2583;50.946;6.954;2022-12-28T01:51:19;8.40;99.90
5130;DHT22;2583;50.946;6.954;2022-12-28T01:53:48;8.40;99.90
5130;DHT22;2583;50.946;6.954;2022-12-28T01:56:15;8.30;99.90
5130;DHT22;2583;50.946;6.954;2022-12-28T01:58:43;8.40;99.90
5130;DHT22;2583;50.946;6.954;2022-12-28T02:01:10;8.40;99.90
5130;DHT22;2583;50.946;6.954;2022-12-28T02:03:37;8.40;99.90
5130;DHT22;2583;50.946;6.954;2022-12-28T02:06:07;8.40;99.90
5130;DHT22;2583;50.946;6.954;2022-12-28T02:08:45;8.40;99.90
5130;DHT22;2583;50.946;6.954;2022-12-28T02:11:15;8.40;99.90
5130;DHT22;2583;50.946;6.954;2022-12-28T02:13:45;8.40;99.90
5130;DHT22;2583;50.946;6.954;2022-12-28T02:16:12;8.40;99.90
5130;DHT22;2583;50.946;6.954;2022-12-28T02:18:41;8.50;99.90
5130;DHT22;2583;50.946;6.954;2022-12-28T02:32:34;8.50;99.90
5130;DHT22;2583;50.946;6.954;2022-12-28T02:35:31;8.50;99.90
5130;DHT22;2583;50.946;6.954;2022-12-28T02:40:30;8.60;99.90
5130;DHT22;2583;50.946;6.954;2022-12-28T02:43:00;8.60;99.90
5130;DHT22;2583;50.946;6.954;2022-12-28T02:45:37;8.70;99.90
5130;DHT22;2583;50.946;6.954;2022-12-28T02:48:24;8.60;99.90
5130;DHT22;2583;50.946;6.954;2022-12-28T02:53:49;8.60;99.90
5130;DHT22;2583;50.946;6.954;2022-12-28T02:56:55;8.60;99.90
5130;DHT22;2583;50.946;6.954;2022-12-28T03:00:08;8.70;99.90
5130;DHT22;2583;50.946;6.954;2022-12-28T03:09:00;8.80;99.90
5130;DHT22;2583;50.946;6.954;2022-12-28T03:11:44;8.70;99.90
5130;DHT22;2583;50.946;6.954;2022-12-28T03:14:21;8.70;99.90
5130;DHT22;2583;50.946;6.954;2022-12-28T03:16:52;8.70;99.90
5130;DHT22;2583;50.946;6.954;2022-12-28T03:19:43;8.80;99.90
5130;DHT22;2583;50.946;6.954;2022-12-28T03:22:33;8.80;99.90
5130;DHT22;2583;50.946;6.954;2022-12-28T03:25:21;8.80;99.90
5130;DHT22;2583;50.946;6.954;2022-12-28T03:28:10;8.80;99.90
5130;DHT22;2583;50.946;6.954;2022-12-28T03:30:59;8.90;99.90
5130;DHT22;2583;50.946;6.954;2022-12-28T03:33:38;8.90;99.90
5130;DHT22;2583;50.946;6.954;2022-12-28T03:44:08;9.00;99.90
5130;DHT22;2583;50.946;6.954;2022-12-28T03:46:46;9.00;99.90
5130;DHT22;2583;50.946;6.954;2022-12-28T03:49:14;9.00;99.90
5130;DHT22;2583;50.946;6.954;2022-12-28T03:51:42;9.00;99.90
5130;DHT22;2583;50.946;6.954;2022-12-28T03:54:17;9.00;99.90
5130;DHT22;2583;50.946;6.954;2022-12-28T03:56:49;9.10;99.90
5130;DHT22;2583;50.946;6.954;2022-12-28T03:59:16;9.10;99.90
5130;DHT22;2583;50.946;6.954;2022-12-28T04:01:43;9.10;99.90
5130;DHT22;2583;50.946;6.954;2022-12-28T04:04:11;9.10;99.90
5130;DHT22;2583;50.946;6.954;2022-12-28T04:06:38;9.10;99.90
5130;DHT22;2583;50.946;6.954;2022-12-28T04:09:05;9.10;99.90
5130;DHT22;2583;50.946;6.954;2022-12-28T04:11:32;9.10;99.90
5130;DHT22;2583;50.946;6.954;2022-12-28T04:13:59;9.20;99.90
5130;DHT22;2583;50.946;6.954;2022-12-28T04:16:32;9.20;99.90
5130;DHT22;2583;50.946;6.954;2022-12-28T04:18:59;9.30;99.90
5130;DHT22;2583;50.946;6.954;2022-12-28T04:21:25;9.30;99.90
5130;DHT22;2583;50.946;6.954;2022-12-28T04:23:52;9.30;99.90
5130;DHT22;2583;50.946;6.954;2022-12-28T04:26:19;9.30;99.90
5130;DHT22;2583;50.946;6.954;2022-12-28T04:28:46;9.40;99.90
5130;DHT22;2583;50.946;6.954;2022-12-28T04:31:13;9.40;99.90
5130;DHT22;2583;50.946;6.954;2022-12-28T04:33:40;9.40;99.90
5130;DHT22;2583;50.946;6.954;2022-12-28T04:38:36;9.40;99.90
5130;DHT22;2583;50.946;6.954;2022-12-28T04:41:03;9.50;99.90
5130;DHT22;2583;50.946;6.954;2022-12-28T04:43:31;9.50;99.90
5130;DHT22;2583;50.946;6.954;2022-12-28T04:46:04;9.50;99.90
5130;DHT22;2583;50.946;6.954;2022-12-28T04:48:32;9.60;99.90
5130;DHT22;2583;50.946;6.954;2022-12-28T04:51:09;9.60;99.90
5130;DHT22;2583;50.946;6.954;2022-12-28T04:53:37;9.50;99.90
5130;DHT22;2583;50.946;6.954;2022-12-28T04:56:05;9.60;99.90
5130;DHT22;2583;50.946;6.954;2022-12-28T04:58:32;9.60;99.90
5130;DHT22;2583;50.946;6.954;2022-12-28T05:01:09;9.60;99.90
5130;DHT22;2583;50.946;6.954;2022-12-28T05:03:38;9.60;99.90
5130;DHT22;2583;50.946;6.954;2022-12-28T05:06:07;9.60;99.90
5130;DHT22;2583;50.946;6.954;2022-12-28T05:08:37;9.70;99.90
5130;DHT22;2583;50.946;6.954;2022-12-28T05:11:06;9.70;99.90
5130;DHT22;2583;50.946;6.954;2022-12-28T05:13:34;9.70;99.90
5130;DHT22;2583;50.946;6.954;2022-12-28T05:16:06;9.70;99.90
5130;DHT22;2583;50.946;6.954;2022-12-28T05:18:33;9.70;99.90
5130;DHT22;2583;50.946;6.954;2022-12-28T05:21:14;9.70;99.90
5130;DHT22;2583;50.946;6.954;2022-12-28T05:23:41;9.70;99.90
5130;DHT22;2583;50.946;6.954;2022-12-28T05:26:11;9.70;99.90
5130;DHT22;2583;50.946;6.954;2022-12-28T05:28:39;9.80;99.90
5130;DHT22;2583;50.946;6.954;2022-12-28T05:31:08;9.80;99.90
5130;DHT22;2583;50.946;6.954;2022-12-28T05:33:36;9.80;99.90
5130;DHT22;2583;50.946;6.954;2022-12-28T05:36:07;9.80;99.90
5130;DHT22;2583;50.946;6.954;2022-12-28T05:38:35;9.80;99.90
5130;DHT22;2583;50.946;6.954;2022-12-28T05:41:08;9.80;99.90
5130;DHT22;2583;50.946;6.954;2022-12-28T05:43:35;9.80;99.90
5130;DHT22;2583;50.946;6.954;2022-12-28T05:46:03;9.80;99.90
5130;DHT22;2583;50.946;6.954;2022-12-28T05:48:32;9.90;99.90
5130;DHT22;2583;50.946;6.954;2022-12-28T05:51:08;9.90;99.90
5130;DHT22;2583;50.946;6.954;2022-12-28T05:53:36;9.90;99.90
5130;DHT22;2583;50.946;6.954;2022-12-28T05:56:14;10.00;99.90
5130;DHT22;2583;50.946;6.954;2022-12-28T05:58:42;10.00;99.90
5130;DHT22;2583;50.946;6.954;2022-12-28T06:01:15;10.00;99.90
5130;DHT22;2583;50.946;6.954;2022-12-28T06:03:43;10.00;99.90
5130;DHT22;2583;50.946;6.954;2022-12-28T06:06:12;10.00;99.90
5130;DHT22;2583;50.946;6.954;2022-12-28T06:08:40;10.10;99.90
5130;DHT22;2583;50.946;6.954;2022-12-28T06:11:09;10.10;99.90
5130;DHT22;2583;50.946;6.954;2022-12-28T06:13:37;10.10;99.90
5130;DHT22;2583;50.946;6.954;2022-12-28T06:16:06;10.10;99.90
5130;DHT22;2583;50.946;6.954;2022-12-28T06:18:33;10.10;99.90
5130;DHT22;2583;50.946;6.954;2022-12-28T06:21:09;10.10;99.50
5130;DHT22;2583;50.946;6.954;2022-12-28T06:23:39;10.10;99.60
5130;DHT22;2583;50.946;6.954;2022-12-28T06:26:07;10.10;99.60
5130;DHT22;2583;50.946;6.954;2022-12-28T06:28:37;10.10;99.40
5130;DHT22;2583;50.946;6.954;2022-12-28T06:31:16;10.10;99.40
5130;DHT22;2583;50.946;6.954;2022-12-28T06:33:44;10.10;99.20
5130;DHT22;2583;50.946;6.954;2022-12-28T06:36:17;10.10;98.90
5130;DHT22;2583;50.946;6.954;2022-12-28T06:38:47;10.10;99.00
5130;DHT22;2583;50.946;6.954;2022-12-28T06:41:16;10.10;99.10
5130;DHT22;2583;50.946;6.954;2022-12-28T06:43:44;10.10;99.20
5130;DHT22;2583;50.946;6.954;2022-12-28T06:46:12;10.10;98.60
5130;DHT22;2583;50.946;6.954;2022-12-28T06:48:40;10.20;99.10
5130;DHT22;2583;50.946;6.954;2022-12-28T06:51:17;10.20;99.00
5130;DHT22;2583;50.946;6.954;2022-12-28T06:53:45;10.10;99.10
5130;DHT22;2583;50.946;6.954;2022-12-28T06:56:14;10.10;99.50
5130;DHT22;2583;50.946;6.954;2022-12-28T06:58:43;10.10;99.50
5130;DHT22;2583;50.946;6.954;2022-12-28T07:01:20;10.10;99.40
5130;DHT22;2583;50.946;6.954;2022-12-28T07:03:49;10.10;99.60
5130;DHT22;2583;50.946;6.954;2022-12-28T07:06:17;10.20;99.80
5130;DHT22;2583;50.946;6.954;2022-12-28T07:08:44;10.10;99.60
5130;DHT22;2583;50.946;6.954;2022-12-28T07:11:14;10.20;99.70
5130;DHT22;2583;50.946;6.954;2022-12-28T07:13:41;10.10;99.90
5130;DHT22;2583;50.946;6.954;2022-12-28T07:16:21;10.20;99.90
5130;DHT22;2583;50.946;6.954;2022-12-28T07:18:49;10.20;99.90
5130;DHT22;2583;50.946;6.954;2022-12-28T07:21:19;10.20;99.90
5130;DHT22;2583;50.946;6.954;2022-12-28T07:23:48;10.20;99.90
5130;DHT22;2583;50.946;6.954;2022-12-28T07:26:18;10.20;99.90
5130;DHT22;2583;50.946;6.954;2022-12-28T07:28:50;10.20;99.90
5130;DHT22;2583;50.946;6.954;2022-12-28T07:31:19;10.20;99.90
5130;DHT22;2583;50.946;6.954;2022-12-28T07:33:49;10.20;99.90
5130;DHT22;2583;50.946;6.954;2022-12-28T07:36:18;10.20;99.90
5130;DHT22;2583;50.946;6.954;2022-12-28T07:38:46;10.20;99.90
5130;DHT22;2583;50.946;6.954;2022-12-28T07:41:16;10.20;99.90
5130;DHT22;2583;50.946;6.954;2022-12-28T07:43:43;10.20;99.90
5130;DHT22;2583;50.946;6.954;2022-12-28T07:48:38;10.20;99.90
5130;DHT22;2583;50.946;6.954;2022-12-28T07:51:12;10.20;99.90
5130;DHT22;2583;50.946;6.954;2022-12-28T07:53:41;10.20;99.90
5130;DHT22;2583;50.946;6.954;2022-12-28T07:56:08;10.20;99.90
5130;DHT22;2583;50.946;6.954;2022-12-28T07:58:35;10.30;99.90
5130;DHT22;2583;50.946;6.954;2022-12-28T08:01:10;10.30;99.90
5130;DHT22;2583;50.946;6.954;2022-12-28T08:03:38;10.30;99.90
5130;DHT22;2583;50.946;6.954;2022-12-28T08:06:08;10.30;99.90
5130;DHT22;2583;50.946;6.954;2022-12-28T08:08:37;10.30;99.90
5130;DHT22;2583;50.946;6.954;2022-12-28T08:11:05;10.30;99.90
5130;DHT22;2583;50.946;6.954;2022-12-28T08:13:33;10.40;99.90
5130;DHT22;2583;50.946;6.954;2022-12-28T08:16:01;10.30;99.60
5130;DHT22;2583;50.946;6.954;2022-12-28T08:18:29;10.40;99.80
5130;DHT22;2583;50.946;6.954;2022-12-28T08:21:00;10.30;99.70
5130;DHT22;2583;50.946;6.954;2022-12-28T08:23:28;10.40;99.90
5130;DHT22;2583;50.946;6.954;2022-12-28T08:25:55;10.40;99.60
5130;DHT22;2583;50.946;6.954;2022-12-28T08:28:22;10.40;99.90
5130;DHT22;2583;50.946;6.954;2022-12-28T08:30:48;10.40;99.70
5130;DHT22;2583;50.946;6.954;2022-12-28T08:33:15;10.40;99.60
5130;DHT22;2583;50.946;6.954;2022-12-28T08:35:42;10.40;99.80
5130;DHT22;2583;50.946;6.954;2022-12-28T08:38:09;10.50;99.40
5130;DHT22;2583;50.946;6.954;2022-12-28T08:40:35;10.40;99.40
5130;DHT22;2583;50.946;6.954;2022-12-28T08:43:02;10.60;99.40
5130;DHT22;2583;50.946;6.954;2022-12-28T08:45:29;10.60;99.30
5130;DHT22;2583;50.946;6.954;2022-12-28T08:47:56;10.70;99.20
5130;DHT22;2583;50.946;6.954;2022-12-28T08:50:22;10.60;99.10
5130;DHT22;2583;50.946;6.954;2022-12-28T08:52:57;10.60;99.70
5130;DHT22;2583;50.946;6.954;2022-12-28T08:55:23;10.60;99.80
5130;DHT22;2583;50.946;6.954;2022-12-28T08:57:50;10.60;99.90
5130;DHT22;2583;50.946;6.954;2022-12-28T09:00:17;10.70;99.90
5130;DHT22;2583;50.946;6.954;2022-12-28T09:02:44;10.70;99.50
5130;DHT22;2583;50.946;6.954;2022-12-28T09:05:11;10.70;99.40
5130;DHT22;2583;50.946;6.954;2022-12-28T09:07:38;10.70;99.40
5130;DHT22;2583;50.946;6.954;2022-12-28T09:10:05;10.80;99.30
5130;DHT22;2583;50.946;6.954;2022-12-28T09:12:32;10.70;99.00
5130;DHT22;2583;50.946;6.954;2022-12-28T09:14:59;10.70;99.00
5130;DHT22;2583;50.946;6.954;2022-12-28T09:17:25;10.80;99.10
5130;DHT22;2583;50.946;6.954;2022-12-28T09:19:52;10.80;98.80
5130;DHT22;2583;50.946;6.954;2022-12-28T09:22:19;10.90;99.50
5130;DHT22;2583;50.946;6.954;2022-12-28T09:24:45;10.90;99.90
5130;DHT22;2583;50.946;6.954;2022-12-28T09:27:12;10.80;99.90
5130;DHT22;2583;50.946;6.954;2022-12-28T09:29:39;10.90;99.90
5130;DHT22;2583;50.946;6.954;2022-12-28T09:32:06;10.80;99.90
5130;DHT22;2583;50.946;6.954;2022-12-28T09:34:33;10.90;99.90
5130;DHT22;2583;50.946;6.954;2022-12-28T09:37:04;10.80;99.90
5130;DHT22;2583;50.946;6.954;2022-12-28T09:39:31;10.90;99.90
5130;DHT22;2583;50.946;6.954;2022-12-28T09:47:48;10.90;99.50
5130;DHT22;2583;50.946;6.954;2022-12-28T09:55:34;11.00;98.50
5130;DHT22;2583;50.946;6.954;2022-12-28T09:58:02;11.10;98.30
5130;DHT22;2583;50.946;6.954;2022-12-28T10:00:40;11.10;97.70
5130;DHT22;2583;50.946;6.954;2022-12-28T10:05:42;11.10;97.40
5130;DHT22;2583;50.946;6.954;2022-12-28T10:08:13;11.10;97.70
5130;DHT22;2583;50.946;6.954;2022-12-28T10:10:41;11.10;97.80
5130;DHT22;2583;50.946;6.954;2022-12-28T10:13:23;11.20;97.20
5130;DHT22;2583;50.946;6.954;2022-12-28T10:16:16;11.20;97.20
5130;DHT22;2583;50.946;6.954;2022-12-28T10:18:44;11.10;96.90
5130;DHT22;2583;50.946;6.954;2022-12-28T10:21:12;11.10;97.70
5130;DHT22;2583;50.946;6.954;2022-12-28T10:23:40;11.20;97.10
5130;DHT22;2583;50.946;6.954;2022-12-28T10:26:28;11.30;97.10
5130;DHT22;2583;50.946;6.954;2022-12-28T10:28:59;11.30;96.70
5130;DHT22;2583;50.946;6.954;2022-12-28T10:31:34;11.30;96.50
5130;DHT22;2583;50.946;6.954;2022-12-28T10:34:16;11.30;97.50
5130;DHT22;2583;50.946;6.954;2022-12-28T10:36:47;11.30;96.40
5130;DHT22;2583;50.946;6.954;2022-12-28T10:39:23;11.40;96.80
5130;DHT22;2583;50.946;6.954;2022-12-28T10:41:51;11.40;96.50
5130;DHT22;2583;50.946;6.954;2022-12-28T10:44:28;11.40;96.40
5130;DHT22;2583;50.946;6.954;2022-12-28T10:47:15;11.50;96.30
5130;DHT22;2583;50.946;6.954;2022-12-28T10:49:49;11.50;96.10
5130;DHT22;2583;50.946;6.954;2022-12-28T10:52:36;11.50;96.10
5130;DHT22;2583;50.946;6.954;2022-12-28T10:55:27;11.50;96.10
5130;DHT22;2583;50.946;6.954;2022-12-28T10:57:54;11.60;96.50
5130;DHT22;2583;50.946;6.954;2022-12-28T11:00:41;11.50;95.00
5130;DHT22;2583;50.946;6.954;2022-12-28T11:03:20;11.60;95.60
5130;DHT22;2583;50.946;6.954;2022-12-28T11:05:49;11.50;95.90
5130;DHT22;2583;50.946;6.954;2022-12-28T11:08:23;11.50;96.30
5130;DHT22;2583;50.946;6.954;2022-12-28T11:10:55;11.40;96.90
5130;DHT22;2583;50.946;6.954;2022-12-28T11:13:23;11.40;97.30
5130;DHT22;2583;50.946;6.954;2022-12-28T11:15:49;11.50;97.70
5130;DHT22;2583;50.946;6.954;2022-12-28T11:18:17;11.50;97.50
5130;DHT22;2583;50.946;6.954;2022-12-28T11:20:47;11.40;97.50
5130;DHT22;2583;50.946;6.954;2022-12-28T11:23:25;11.50;98.00
5130;DHT22;2583;50.946;6.954;2022-12-28T11:25:57;11.40;97.90
5130;DHT22;2583;50.946;6.954;2022-12-28T11:28:24;11.40;98.30
5130;DHT22;2583;50.946;6.954;2022-12-28T11:30:51;11.50;98.20
5130;DHT22;2583;50.946;6.954;2022-12-28T11:33:42;11.50;98.20
5130;DHT22;2583;50.946;6.954;2022-12-28T11:36:24;11.50;97.30
5130;DHT22;2583;50.946;6.954;2022-12-28T11:38:54;11.50;97.10
5130;DHT22;2583;50.946;6.954;2022-12-28T11:44:01;11.50;96.70
5130;DHT22;2583;50.946;6.954;2022-12-28T11:49:00;11.50;96.00
5130;DHT22;2583;50.946;6.954;2022-12-28T11:51:35;11.50;96.10
5130;DHT22;2583;50.946;6.954;2022-12-28T11:59:26;11.50;95.10
5130;DHT22;2583;50.946;6.954;2022-12-28T12:01:59;11.40;94.70
5130;DHT22;2583;50.946;6.954;2022-12-28T12:14:50;11.50;93.30
5130;DHT22;2583;50.946;6.954;2022-12-28T12:18:04;11.50;92.80
5130;DHT22;2583;50.946;6.954;2022-12-28T12:23:08;11.50;91.80
5130;DHT22;2583;50.946;6.954;2022-12-28T12:25:43;11.40;90.20
5130;DHT22;2583;50.946;6.954;2022-12-28T12:28:26;11.40;90.00
5130;DHT22;2583;50.946;6.954;2022-12-28T12:30:55;11.40;92.00
5130;DHT22;2583;50.946;6.954;2022-12-28T12:33:25;11.50;91.30
5130;DHT22;2583;50.946;6.954;2022-12-28T12:36:28;11.50;93.30
5130;DHT22;2583;50.946;6.954;2022-12-28T12:39:20;11.40;91.30
5130;DHT22;2583;50.946;6.954;2022-12-28T12:56:46;11.50;81.60
5130;DHT22;2583;50.946;6.954;2022-12-28T13:04:49;11.60;83.40
5130;DHT22;2583;50.946;6.954;2022-12-28T13:07:22;11.50;83.20
5130;DHT22;2583;50.946;6.954;2022-12-28T13:09:52;11.60;79.80
5130;DHT22;2583;50.946;6.954;2022-12-28T13:12:20;11.50;77.70
5130;DHT22;2583;50.946;6.954;2022-12-28T13:14:58;11.50;79.80
5130;DHT22;2583;50.946;6.954;2022-12-28T13:17:27;11.50;80.10
5130;DHT22;2583;50.946;6.954;2022-12-28T13:20:17;11.50;77.30
5130;DHT22;2583;50.946;6.954;2022-12-28T13:22:46;11.50;78.30
5130;DHT22;2583;50.946;6.954;2022-12-28T13:25:31;11.50;79.10
5130;DHT22;2583;50.946;6.954;2022-12-28T13:28:02;11.60;80.70
5130;DHT22;2583;50.946;6.954;2022-12-28T13:30:29;11.60;79.90
5130;DHT22;2583;50.946;6.954;2022-12-28T13:32:58;11.60;78.00
5130;DHT22;2583;50.946;6.954;2022-12-28T13:35:28;11.60;77.80
5130;DHT22;2583;50.946;6.954;2022-12-28T13:38:17;11.60;80.50
5130;DHT22;2583;50.946;6.954;2022-12-28T13:40:50;11.60;79.30
5130;DHT22;2583;50.946;6.954;2022-12-28T13:45:50;11.60;78.80
5130;DHT22;2583;50.946;6.954;2022-12-28T13:48:18;11.50;79.60
5130;DHT22;2583;50.946;6.954;2022-12-28T13:50:45;11.50;78.30
5130;DHT22;2583;50.946;6.954;2022-12-28T13:53:21;11.50;79.20
5130;DHT22;2583;50.946;6.954;2022-12-28T13:55:56;11.50;78.00
5130;DHT22;2583;50.946;6.954;2022-12-28T13:58:29;11.50;79.40
5130;DHT22;2583;50.946;6.954;2022-12-28T14:00:58;11.50;78.60
5130;DHT22;2583;50.946;6.954;2022-12-28T14:03:26;11.50;77.10
5130;DHT22;2583;50.946;6.954;2022-12-28T14:05:56;11.50;77.10
5130;DHT22;2583;50.946;6.954;2022-12-28T14:08:28;11.50;74.60
5130;DHT22;2583;50.946;6.954;2022-12-28T14:10:59;11.60;75.30
5130;DHT22;2583;50.946;6.954;2022-12-28T14:13:26;11.60;74.30
5130;DHT22;2583;50.946;6.954;2022-12-28T14:15:54;11.50;73.00
5130;DHT22;2583;50.946;6.954;2022-12-28T14:18:20;11.50;72.50
5130;DHT22;2583;50.946;6.954;2022-12-28T14:20:49;11.50;72.90
5130;DHT22;2583;50.946;6.954;2022-12-28T14:23:20;11.50;71.40
5130;DHT22;2583;50.946;6.954;2022-12-28T14:25:48;11.60;70.60
5130;DHT22;2583;50.946;6.954;2022-12-28T14:28:26;11.60;71.20
5130;DHT22;2583;50.946;6.954;2022-12-28T14:30:55;11.60;71.10
5130;DHT22;2583;50.946;6.954;2022-12-28T14:33:25;11.60;71.20
5130;DHT22;2583;50.946;6.954;2022-12-28T14:35:58;11.60;70.30
5130;DHT22;2583;50.946;6.954;2022-12-28T14:38:37;11.60;69.10
5130;DHT22;2583;50.946;6.954;2022-12-28T14:41:05;11.60;67.50
5130;DHT22;2583;50.946;6.954;2022-12-28T14:43:35;11.60;66.80
5130;DHT22;2583;50.946;6.954;2022-12-28T14:46:24;11.60;66.30
5130;DHT22;2583;50.946;6.954;2022-12-28T14:48:53;11.60;64.90
5130;DHT22;2583;50.946;6.954;2022-12-28T14:54:08;11.60;64.80
5130;DHT22;2583;50.946;6.954;2022-12-28T14:56:40;11.60;64.40
5130;DHT22;2583;50.946;6.954;2022-12-28T14:59:17;11.60;65.20
5130;DHT22;2583;50.946;6.954;2022-12-28T15:01:46;11.60;64.60
5130;DHT22;2583;50.946;6.954;2022-12-28T15:04:34;11.60;65.90
5130;DHT22;2583;50.946;6.954;2022-12-28T15:07:04;11.60;64.50
5130;DHT22;2583;50.946;6.954;2022-12-28T15:09:31;11.50;63.80
5130;DHT22;2583;50.946;6.954;2022-12-28T15:12:19;11.50;64.50
5130;DHT22;2583;50.946;6.954;2022-12-28T15:14:50;11.60;65.00
5130;DHT22;2583;50.946;6.954;2022-12-28T15:17:17;11.60;64.70
5130;DHT22;2583;50.946;6.954;2022-12-28T15:19:44;11.60;65.30
5130;DHT22;2583;50.946;6.954;2022-12-28T15:22:11;11.60;65.80
5130;DHT22;2583;50.946;6.954;2022-12-28T15:24:38;11.60;65.30
5130;DHT22;2583;50.946;6.954;2022-12-28T15:27:07;11.60;65.60
5130;DHT22;2583;50.946;6.954;2022-12-28T15:29:34;11.60;64.00
5130;DHT22;2583;50.946;6.954;2022-12-28T15:32:20;11.60;65.50
5130;DHT22;2583;50.946;6.954;2022-12-28T15:34:47;11.60;65.10
5130;DHT22;2583;50.946;6.954;2022-12-28T15:37:14;11.60;65.30
5130;DHT22;2583;50.946;6.954;2022-12-28T15:39:41;11.60;65.10
5130;DHT22;2583;50.946;6.954;2022-12-28T15:42:07;11.60;64.80
5130;DHT22;2583;50.946;6.954;2022-12-28T15:44:34;11.60;65.90
5130;DHT22;2583;50.946;6.954;2022-12-28T15:47:01;11.50;63.90
5130;DHT22;2583;50.946;6.954;2022-12-28T15:49:28;11.60;63.70
5130;DHT22;2583;50.946;6.954;2022-12-28T15:51:54;11.50;63.50
5130;DHT22;2583;50.946;6.954;2022-12-28T15:54:21;11.60;63.00
5130;DHT22;2583;50.946;6.954;2022-12-28T15:56:53;11.60;63.10
5130;DHT22;2583;50.946;6.954;2022-12-28T15:59:20;11.60;62.30
5130;DHT22;2583;50.946;6.954;2022-12-28T16:01:46;11.60;61.10
5130;DHT22;2583;50.946;6.954;2022-12-28T16:04:14;11.60;60.00
5130;DHT22;2583;50.946;6.954;2022-12-28T16:06:41;11.50;60.50
5130;DHT22;2583;50.946;6.954;2022-12-28T16:09:11;11.60;59.60
5130;DHT22;2583;50.946;6.954;2022-12-28T16:11:39;11.60;58.50
5130;DHT22;2583;50.946;6.954;2022-12-28T16:14:10;11.60;57.30
5130;DHT22;2583;50.946;6.954;2022-12-28T16:16:39;11.60;56.30
5130;DHT22;2583;50.946;6.954;2022-12-28T16:19:06;11.60;56.60
5130;DHT22;2583;50.946;6.954;2022-12-28T16:21:35;11.60;55.90
5130;DHT22;2583;50.946;6.954;2022-12-28T16:24:02;11.60;56.60
5130;DHT22;2583;50.946;6.954;2022-12-28T16:26:29;11.60;55.20
5130;DHT22;2583;50.946;6.954;2022-12-28T16:28:58;11.60;55.20
5130;DHT22;2583;50.946;6.954;2022-12-28T16:31:26;11.60;55.20
5130;DHT22;2583;50.946;6.954;2022-12-28T16:33:55;11.60;55.00
5130;DHT22;2583;50.946;6.954;2022-12-28T16:36:23;11.60;55.20
5130;DHT22;2583;50.946;6.954;2022-12-28T16:38:51;11.60;55.30
5130;DHT22;2583;50.946;6.954;2022-12-28T16:41:19;11.50;55.60
5130;DHT22;2583;50.946;6.954;2022-12-28T16:43:46;11.60;55.60
5130;DHT22;2583;50.946;6.954;2022-12-28T16:46:14;11.60;55.60
5130;DHT22;2583;50.946;6.954;2022-12-28T16:48:41;11.60;55.20
5130;DHT22;2583;50.946;6.954;2022-12-28T16:51:08;11.60;54.90
5130;DHT22;2583;50.946;6.954;2022-12-28T16:53:36;11.60;54.70
5130;DHT22;2583;50.946;6.954;2022-12-28T16:56:04;11.60;54.90
5130;DHT22;2583;50.946;6.954;2022-12-28T16:58:32;11.60;54.70
5130;DHT22;2583;50.946;6.954;2022-12-28T17:01:05;11.60;54.90
5130;DHT22;2583;50.946;6.954;2022-12-28T17:03:33;11.60;54.90
5130;DHT22;2583;50.946;6.954;2022-12-28T17:06:00;11.60;55.30
5130;DHT22;2583;50.946;6.954;2022-12-28T17:08:27;11.50;55.00
5130;DHT22;2583;50.946;6.954;2022-12-28T17:10:54;11.50;55.50
5130;DHT22;2583;50.946;6.954;2022-12-28T17:13:22;11.50;55.80
5130;DHT22;2583;50.946;6.954;2022-12-28T17:15:48;11.50;56.30
5130;DHT22;2583;50.946;6.954;2022-12-28T17:18:15;11.50;58.20
5130;DHT22;2583;50.946;6.954;2022-12-28T17:20:43;11.50;59.30
5130;DHT22;2583;50.946;6.954;2022-12-28T17:23:11;11.50;62.00
5130;DHT22;2583;50.946;6.954;2022-12-28T17:25:38;11.50;62.20
5130;DHT22;2583;50.946;6.954;2022-12-28T17:28:05;11.50;65.40
5130;DHT22;2583;50.946;6.954;2022-12-28T17:30:32;11.40;66.30
5130;DHT22;2583;50.946;6.954;2022-12-28T17:32:59;11.40;67.50
5130;DHT22;2583;50.946;6.954;2022-12-28T17:35:26;11.40;70.20
5130;DHT22;2583;50.946;6.954;2022-12-28T17:37:53;11.40;70.50
5130;DHT22;2583;50.946;6.954;2022-12-28T17:40:19;11.40;74.20
5130;DHT22;2583;50.946;6.954;2022-12-28T17:42:46;11.40;74.40
5130;DHT22;2583;50.946;6.954;2022-12-28T17:45:13;11.30;75.60
5130;DHT22;2583;50.946;6.954;2022-12-28T17:47:40;11.30;80.00
5130;DHT22;2583;50.946;6.954;2022-12-28T17:50:07;11.30;83.10
5130;DHT22;2583;50.946;6.954;2022-12-28T17:52:34;11.30;86.90
5130;DHT22;2583;50.946;6.954;2022-12-28T17:55:01;11.20;89.70
5130;DHT22;2583;50.946;6.954;2022-12-28T17:57:29;11.20;91.00
5130;DHT22;2583;50.946;6.954;2022-12-28T18:00:04;11.20;92.20
5130;DHT22;2583;50.946;6.954;2022-12-28T18:02:32;11.10;92.90
5130;DHT22;2583;50.946;6.954;2022-12-28T18:04:59;11.10;94.20
5130;DHT22;2583;50.946;6.954;2022-12-28T18:07:25;11.10;95.60
5130;DHT22;2583;50.946;6.954;2022-12-28T18:09:53;11.10;95.10
5130;DHT22;2583;50.946;6.954;2022-12-28T18:12:20;11.10;96.30
5130;DHT22;2583;50.946;6.954;2022-12-28T18:14:47;11.10;97.50